createdAt,value
2018-08-10T00:01:21.605Z,50.84
2018-08-10T00:06:25.158Z,49.97
2018-08-10T00:11:28.628Z,49.87
2018-08-10T00:16:32.090Z,50.31
2018-08-10T00:21:35.578Z,50.73
2018-08-10T00:26:39.116Z,50.44
2018-08-10T00:31:42.734Z,50.94
2018-08-10T00:36:46.694Z,50.82
2018-08-10T00:41:50.234Z,50.25
2018-08-10T00:46:53.795Z,51.50
2018-08-10T00:51:57.430Z,51.10
2018-08-10T00:57:00.982Z,50.22
2018-08-10T01:02:04.505Z,50.47
2018-08-10T01:07:08.028Z,50.58
2018-08-10T01:12:14.492Z,50.95
2018-08-10T01:17:18.012Z,51.11
2018-08-10T01:22:21.551Z,51.13
2018-08-10T01:27:30.438Z,52.68
2018-08-10T01:32:33.936Z,56.72
2018-08-10T01:37:37.544Z,58.30
2018-08-10T01:42:41.105Z,58.83
2018-08-10T01:47:44.784Z,59.29
2018-08-10T01:52:48.342Z,59.58
2018-08-10T01:57:51.862Z,59.67
2018-08-10T02:02:55.365Z,60.34
2018-08-10T02:07:59.019Z,60.33
2018-08-10T02:13:02.553Z,60.81
2018-08-10T02:18:06.245Z,60.01
2018-08-10T02:23:09.922Z,60.12
2018-08-10T02:28:13.486Z,59.42
2018-08-10T02:33:16.990Z,59.84
2018-08-10T02:38:20.518Z,61.08
2018-08-10T02:43:24.043Z,60.94
2018-08-10T02:48:27.788Z,62.00
2018-08-10T02:53:31.256Z,61.42
2018-08-10T02:58:34.748Z,60.92
2018-08-10T03:03:38.320Z,58.44
2018-08-10T03:08:41.858Z,56.79
2018-08-10T03:13:45.453Z,55.62
2018-08-10T03:18:48.959Z,53.27
2018-08-10T03:23:52.531Z,53.67
2018-08-10T03:28:56.100Z,54.57
2018-08-10T03:33:59.664Z,53.81
2018-08-10T03:39:03.158Z,53.87
2018-08-10T03:44:06.877Z,54.43
2018-08-10T03:49:10.411Z,55.68
2018-08-10T03:54:13.927Z,55.38
2018-08-10T03:59:17.517Z,55.24
2018-08-10T04:04:21.833Z,56.04
2018-08-10T04:09:25.301Z,55.25
2018-08-10T04:14:28.766Z,55.67
2018-08-10T04:19:32.341Z,54.85
2018-08-10T04:24:35.897Z,53.78
2018-08-10T04:29:39.515Z,53.80
2018-08-10T04:34:43.034Z,54.20
2018-08-10T04:39:46.514Z,50.82
2018-08-10T04:44:49.977Z,49.43
2018-08-10T04:49:53.592Z,48.23
2018-08-10T04:54:57.156Z,47.85
2018-08-10T05:00:00.627Z,49.23
2018-08-10T05:05:04.777Z,50.51
2018-08-10T05:10:08.660Z,51.15
2018-08-10T05:15:12.778Z,52.03
2018-08-10T05:20:16.227Z,52.14
2018-08-10T05:25:19.701Z,51.26
2018-08-10T05:30:23.187Z,52.05
2018-08-10T05:35:26.710Z,51.57
2018-08-10T05:40:30.245Z,52.38
2018-08-10T05:45:33.762Z,52.40
2018-08-10T05:50:37.290Z,52.60
2018-08-10T05:55:40.802Z,52.57
2018-08-10T06:00:44.408Z,52.92
2018-08-10T06:05:47.840Z,52.31
2018-08-10T06:10:51.413Z,50.47
2018-08-10T06:15:54.917Z,49.91
2018-08-10T06:20:58.390Z,49.13
2018-08-10T06:26:01.870Z,49.20
2018-08-10T06:31:05.332Z,48.93
2018-08-10T06:36:08.834Z,49.81
2018-08-10T06:41:12.323Z,49.16
2018-08-10T06:46:15.841Z,48.20
2018-08-10T06:51:19.457Z,46.94
2018-08-10T06:56:22.902Z,47.04
2018-08-10T07:01:26.435Z,46.46
2018-08-10T07:06:29.844Z,46.80
2018-08-10T07:11:33.390Z,46.67
2018-08-10T07:16:36.876Z,47.55
2018-08-10T07:21:40.358Z,46.96
2018-08-10T07:26:43.827Z,47.30
2018-08-10T07:31:47.353Z,46.35
2018-08-10T07:36:50.897Z,46.41
2018-08-10T07:41:54.359Z,46.88
2018-08-10T07:46:57.834Z,46.46
2018-08-10T07:52:01.371Z,46.34
2018-08-10T07:57:04.824Z,46.03
2018-08-10T08:02:08.292Z,46.42
2018-08-10T08:07:11.766Z,46.24
2018-08-10T08:12:15.238Z,45.92
2018-08-10T08:17:18.766Z,46.66
2018-08-10T08:22:22.777Z,46.20
2018-08-10T08:27:26.266Z,45.79
2018-08-10T08:32:29.821Z,45.70
2018-08-10T08:37:33.304Z,45.90
2018-08-10T08:42:36.822Z,44.75
2018-08-10T08:47:40.282Z,44.06
2018-08-10T08:52:43.805Z,44.15
2018-08-10T08:57:47.349Z,42.86
2018-08-10T09:02:50.935Z,44.19
2018-08-10T09:07:54.472Z,44.65
2018-08-10T09:12:58.017Z,44.25
2018-08-10T09:18:01.555Z,44.63
2018-08-10T09:23:05.130Z,45.10
2018-08-10T09:28:08.690Z,43.75
2018-08-10T09:33:12.211Z,42.85
2018-08-10T09:38:22.488Z,41.29
2018-08-10T09:43:26.001Z,41.38
2018-08-10T09:48:29.526Z,42.01
2018-08-10T09:53:33.036Z,43.29
2018-08-10T09:58:36.462Z,40.96
2018-08-10T10:03:39.998Z,40.74
2018-08-10T10:08:43.451Z,40.46
2018-08-10T10:13:46.953Z,37.98
2018-08-10T10:18:50.836Z,38.96
2018-08-10T10:23:54.331Z,38.22
2018-08-10T10:29:00.343Z,38.63
2018-08-10T10:34:03.824Z,38.33
2018-08-10T10:39:10.465Z,36.28
2018-08-10T10:44:14.583Z,35.91
2018-08-10T10:49:18.030Z,34.61
2018-08-10T10:54:21.730Z,34.16
2018-08-10T10:59:25.198Z,35.55
2018-08-10T11:04:28.697Z,34.59
2018-08-10T11:09:32.195Z,35.16
2018-08-10T11:14:35.749Z,34.87
2018-08-10T11:19:39.315Z,34.72
2018-08-10T11:24:42.797Z,34.86
2018-08-10T11:29:46.391Z,34.18
2018-08-10T11:34:49.901Z,30.65
2018-08-10T11:39:53.469Z,33.40
2018-08-10T11:44:57.047Z,33.35
2018-08-10T11:50:00.584Z,33.02
2018-08-10T11:55:04.297Z,31.96
2018-08-10T12:00:09.497Z,31.18
2018-08-10T12:05:13.804Z,30.61
2018-08-10T12:10:17.391Z,30.32
2018-08-10T12:15:22.101Z,29.05
2018-08-10T12:20:25.848Z,29.87
2018-08-10T12:25:29.530Z,27.74
2018-08-10T12:30:36.358Z,26.06
2018-08-10T12:35:40.113Z,26.02
2018-08-10T12:40:43.717Z,25.96
2018-08-10T12:45:47.264Z,26.08
2018-08-10T12:50:50.896Z,26.97
2018-08-10T12:56:01.055Z,27.07
2018-08-10T13:01:04.673Z,26.93
2018-08-10T13:06:08.310Z,27.10
2018-08-10T13:11:11.819Z,26.49
2018-08-10T13:16:15.580Z,26.68
2018-08-10T13:21:19.311Z,27.10
2018-08-10T13:26:22.977Z,25.83
2018-08-10T13:31:26.520Z,26.83
2018-08-10T13:36:30.195Z,26.55
2018-08-10T13:41:33.715Z,26.15
2018-08-10T13:46:37.390Z,26.57
2018-08-10T13:51:40.849Z,28.23
2018-08-10T13:56:44.570Z,27.22
2018-08-10T14:01:48.409Z,28.41
2018-08-10T14:06:52.490Z,28.20
2018-08-10T14:11:56.023Z,26.93
2018-08-10T14:16:59.605Z,26.60
2018-08-10T14:22:03.111Z,25.82
2018-08-10T14:27:06.652Z,25.35
2018-08-10T14:32:10.108Z,25.76
2018-08-10T14:37:47.848Z,26.16
2018-08-10T14:42:51.415Z,25.14
2018-08-10T14:47:54.895Z,25.91
2018-08-10T14:52:58.438Z,26.03
2018-08-10T14:58:02.122Z,25.48
2018-08-10T15:03:05.652Z,25.87
2018-08-10T15:08:09.489Z,26.39
2018-08-10T15:13:13.324Z,24.69
2018-08-10T15:18:17.290Z,22.55
2018-08-10T15:23:20.857Z,23.61
2018-08-10T15:28:24.591Z,23.27
2018-08-10T15:33:28.662Z,22.54
2018-08-10T15:38:32.347Z,21.11
2018-08-10T15:43:35.948Z,19.06
2018-08-10T15:48:39.599Z,19.10
2018-08-10T15:53:43.353Z,19.17
2018-08-10T15:58:46.909Z,18.67
2018-08-10T16:03:50.577Z,18.32
2018-08-10T16:08:54.141Z,17.86
2018-08-10T16:13:59.435Z,15.59
2018-08-10T16:19:04.018Z,14.84
2018-08-10T16:24:08.437Z,16.63
2018-08-10T16:29:13.700Z,21.27
2018-08-10T16:34:17.224Z,22.96
2018-08-10T16:39:20.828Z,24.12
2018-08-10T16:44:25.208Z,24.21
2018-08-10T16:49:29.554Z,25.06
2018-08-10T16:54:34.157Z,24.88
2018-08-10T16:59:38.832Z,25.22
2018-08-10T17:04:42.473Z,25.86
2018-08-10T17:09:46.934Z,26.24
2018-08-10T17:14:51.418Z,25.43
2018-08-10T17:19:55.220Z,25.06
2018-08-10T17:24:59.948Z,24.04
2018-08-10T17:30:06.397Z,23.58
2018-08-10T17:35:11.670Z,23.57
2018-08-10T17:40:15.365Z,21.68
2018-08-10T17:45:19.016Z,21.30
2018-08-10T17:50:22.745Z,22.55
2018-08-10T17:55:26.453Z,23.71
2018-08-10T18:00:30.111Z,24.79
2018-08-10T18:05:33.939Z,25.20
2018-08-10T18:10:37.535Z,25.92
2018-08-10T18:15:41.026Z,26.17
2018-08-10T18:20:44.570Z,27.21
2018-08-10T18:25:48.062Z,27.45
2018-08-10T18:30:51.585Z,27.65
2018-08-10T18:35:55.189Z,27.92
2018-08-10T18:40:58.659Z,30.11
2018-08-10T18:46:02.145Z,29.79
2018-08-10T18:51:05.738Z,30.55
2018-08-10T18:56:10.686Z,30.49
2018-08-10T19:01:14.983Z,30.56
2018-08-10T19:06:19.832Z,31.82
2018-08-10T19:11:23.437Z,32.35
2018-08-10T19:16:26.963Z,32.88
2018-08-10T19:21:30.548Z,35.39
2018-08-10T19:26:34.046Z,34.57
2018-08-10T19:31:37.749Z,35.40
2018-08-10T19:36:41.200Z,35.45
2018-08-10T19:41:45.043Z,34.92
2018-08-10T19:46:48.632Z,34.72
2018-08-10T19:51:52.238Z,36.29
2018-08-10T19:56:55.860Z,36.88
2018-08-10T20:01:59.583Z,37.32
2018-08-10T20:07:03.813Z,37.98
2018-08-10T20:12:07.450Z,38.13
2018-08-10T20:17:11.044Z,39.05
2018-08-10T20:22:17.290Z,39.03
2018-08-10T20:27:21.153Z,39.54
2018-08-10T20:32:24.850Z,39.54
2018-08-10T20:37:28.622Z,39.85
2018-08-10T20:42:32.245Z,40.33
2018-08-10T20:47:37.503Z,39.98
2018-08-10T20:52:43.204Z,39.91
2018-08-10T20:57:47.137Z,40.02
2018-08-10T21:02:50.805Z,39.86
2018-08-10T21:07:54.475Z,41.52
2018-08-10T21:12:58.049Z,41.29
2018-08-10T21:18:01.576Z,41.54
2018-08-10T21:23:05.172Z,41.77
2018-08-10T21:28:08.764Z,41.23
2018-08-10T21:33:12.307Z,41.59
2018-08-10T21:38:15.914Z,42.38
2018-08-10T21:43:19.518Z,41.14
2018-08-10T21:48:22.997Z,41.59
2018-08-10T21:53:26.609Z,42.88
2018-08-10T21:58:30.289Z,42.35
2018-08-10T22:03:33.896Z,42.33
2018-08-10T22:08:37.471Z,42.57
2018-08-10T22:13:46.292Z,42.07
2018-08-10T22:18:55.285Z,41.99
2018-08-10T22:23:58.935Z,43.32
2018-08-10T22:29:02.626Z,43.96
2018-08-10T22:34:06.442Z,44.36
2018-08-10T22:39:10.205Z,43.90
2018-08-10T22:44:13.891Z,43.63
2018-08-10T22:49:17.498Z,41.96
2018-08-10T22:54:21.000Z,42.41
2018-08-10T22:59:24.657Z,41.29
2018-08-10T23:04:28.477Z,41.05
2018-08-10T23:09:32.339Z,41.31
2018-08-10T23:14:35.987Z,40.88
2018-08-10T23:19:39.771Z,41.38
2018-08-10T23:24:43.325Z,41.94
2018-08-10T23:29:47.013Z,42.34
2018-08-10T23:34:50.989Z,41.63
2018-08-10T23:39:54.536Z,42.11
2018-08-10T23:44:58.201Z,42.60
2018-08-10T23:50:01.891Z,42.84
2018-08-10T23:55:06.129Z,42.29
